Time;durP1;ratioP1;P1;durP2;ratioP2;P2;SDS_P1;SDS_P2;PMS_P1;PMS_P2;Temp;Humidity;BMP_temperature;BMP_pressure;BME280_temperature;BME280_humidity;BME280_pressure;Samples;Min_cycle;Max_cycle;Signal;HPM_P1;HPM_P2
2022/12/28 00:02:08;;;;;;;9.53;4.63;;;6.10;99.90;;;;;;5020692;28;20269;-59
2022/12/28 00:04:35;;;;;;;8.10;4.43;;;6.10;99.90;;;;;;5012882;28;20318;-50
2022/12/28 00:07:01;;;;;;;7.57;3.07;;;6.10;99.90;;;;;;5034213;28;20254;-57
2022/12/28 00:09:28;;;;;;;8.30;3.20;;;6.10;99.90;;;;;;5026015;28;20282;-51
2022/12/28 00:11:55;;;;;;;8.03;3.33;;;6.10;99.90;;;;;;5024364;28;20254;-55
2022/12/28 00:14:23;;;;;;;7.50;3.07;;;6.10;99.90;;;;;;5022055;28;20227;-49
2022/12/28 00:16:50;;;;;;;9.93;3.10;;;6.10;99.90;;;;;;5033845;28;20211;-44
2022/12/28 00:19:17;;;;;;;4.63;2.63;;;6.00;99.90;;;;;;5016075;28;20440;-50
2022/12/28 00:21:45;;;;;;;5.53;2.93;;;6.10;99.90;;;;;;5028104;28;20207;-48
2022/12/28 00:24:17;;;;;;;4.13;2.53;;;6.10;99.90;;;;;;5025962;28;20216;-57
2022/12/28 00:26:44;;;;;;;9.20;2.20;;;6.00;99.90;;;;;;5023692;28;20199;-44
2022/12/28 00:29:11;;;;;;;5.77;2.37;;;6.10;99.90;;;;;;5019355;28;20206;-56
2022/12/28 00:31:40;;;;;;;6.03;2.93;;;6.10;99.90;;;;;;5024639;28;20212;-48
2022/12/28 00:34:06;;;;;;;6.27;2.20;;;6.10;99.90;;;;;;5020550;28;20702;-57
2022/12/28 00:36:33;;;;;;;4.93;2.33;;;6.10;99.90;;;;;;5017508;28;20231;-46
2022/12/28 00:39:01;;;;;;;7.07;1.90;;;6.00;99.90;;;;;;5033252;28;20693;-56
2022/12/28 00:41:28;;;;;;;5.00;2.03;;;6.00;99.90;;;;;;5019770;28;20281;-46
2022/12/28 00:43:54;;;;;;;4.20;2.13;;;6.00;99.90;;;;;;5027741;28;20566;-54
2022/12/28 00:46:21;;;;;;;4.33;2.20;;;6.00;99.90;;;;;;5025147;28;20207;-48
2022/12/28 00:48:51;;;;;;;5.47;2.10;;;6.00;99.90;;;;;;5032622;28;20216;-47
2022/12/28 00:51:19;;;;;;;4.67;1.73;;;6.00;99.90;;;;;;5006381;28;20933;-46
2022/12/28 00:53:47;;;;;;;6.20;2.00;;;6.00;99.90;;;;;;5031671;28;20220;-49
2022/12/28 00:56:16;;;;;;;4.10;2.03;;;6.00;99.90;;;;;;5025441;28;20936;-52
2022/12/28 00:58:44;;;;;;;4.87;1.80;;;6.00;99.90;;;;;;5024604;28;20811;-47
2022/12/28 01:01:12;;;;;;;3.70;1.60;;;6.00;99.90;;;;;;5017160;28;20219;-57
2022/12/28 01:03:39;;;;;;;6.17;2.57;;;6.00;99.90;;;;;;5025257;28;20202;-49
2022/12/28 01:06:10;;;;;;;3.97;1.67;;;6.00;99.90;;;;;;5020943;28;20199;-54
2022/12/28 01:08:38;;;;;;;3.57;1.50;;;6.00;99.90;;;;;;5018157;28;20250;-49
2022/12/28 01:11:07;;;;;;;3.67;1.83;;;6.10;99.90;;;;;;5027900;28;20211;-56
2022/12/28 01:13:34;;;;;;;2.43;1.57;;;6.00;99.90;;;;;;5044022;28;20822;-45
2022/12/28 01:16:09;;;;;;;5.10;1.70;;;6.00;99.90;;;;;;5022573;28;20257;-59
2022/12/28 01:18:36;;;;;;;3.83;1.47;;;6.00;99.90;;;;;;5031283;28;20203;-47
2022/12/28 01:21:10;;;;;;;4.93;1.60;;;6.00;99.90;;;;;;5025735;28;20200;-58
2022/12/28 01:23:37;;;;;;;7.13;1.53;;;6.00;99.90;;;;;;5037095;28;20199;-49
2022/12/28 01:26:05;;;;;;;4.00;1.80;;;6.00;99.90;;;;;;5033275;28;20261;-55
2022/12/28 01:28:32;;;;;;;6.70;1.30;;;6.00;99.90;;;;;;5043413;28;20298;-52
2022/12/28 01:31:04;;;;;;;5.00;1.53;;;6.10;99.90;;;;;;5025421;28;20607;-57
2022/12/28 01:33:31;;;;;;;3.87;1.60;;;6.00;99.90;;;;;;5021339;28;20219;-47
2022/12/28 01:35:59;;;;;;;2.43;1.40;;;6.00;99.90;;;;;;5025493;28;20196;-56
2022/12/28 01:38:27;;;;;;;4.03;1.50;;;6.00;99.90;;;;;;5009128;28;20207;-45
2022/12/28 01:40:55;;;;;;;1.67;1.43;;;6.00;99.90;;;;;;5035411;28;20253;-56
2022/12/28 01:43:36;;;;;;;2.23;1.40;;;6.00;99.90;;;;;;5022856;28;20199;-43
2022/12/28 01:46:03;;;;;;;5.13;1.27;;;6.00;99.90;;;;;;5041246;28;20199;-59
2022/12/28 01:48:32;;;;;;;1.47;1.20;;;6.00;99.90;;;;;;5043432;28;20196;-45
2022/12/28 01:50:59;;;;;;;3.63;1.57;;;6.00;99.90;;;;;;5042977;28;20207;-55
2022/12/28 01:53:27;;;;;;;3.37;1.20;;;6.10;99.90;;;;;;5042078;28;20214;-48
2022/12/28 01:55:54;;;;;;;3.33;1.40;;;6.00;99.90;;;;;;5017491;28;20306;-55
2022/12/28 01:58:24;;;;;;;2.87;1.53;;;6.10;99.90;;;;;;5027228;28;20204;-48
2022/12/28 02:00:51;;;;;;;3.23;1.40;;;6.10;99.90;;;;;;5024570;28;20208;-44
2022/12/28 02:03:21;;;;;;;4.43;1.40;;;6.10;99.90;;;;;;5021549;28;20192;-45
2022/12/28 02:05:50;;;;;;;2.50;1.00;;;6.00;99.90;;;;;;5029989;28;20765;-45
2022/12/28 02:08:23;;;;;;;8.60;1.53;;;6.10;99.90;;;;;;5033290;28;20922;-50
2022/12/28 02:10:53;;;;;;;3.40;1.73;;;6.10;99.90;;;;;;5016355;28;20947;-44
2022/12/28 02:13:22;;;;;;;4.27;1.40;;;6.10;99.90;;;;;;5031539;28;20208;-46
2022/12/28 02:15:50;;;;;;;5.27;1.20;;;6.00;99.90;;;;;;5024255;28;20220;-47
2022/12/28 02:18:20;;;;;;;4.87;1.50;;;6.00;99.90;;;;;;5022016;28;20206;-48
2022/12/28 02:21:24;;;;;;;3.13;1.00;;;6.00;99.90;;;;;;5025430;28;20200;-46
2022/12/28 02:24:12;;;;;;;5.00;1.43;;;6.00;99.90;;;;;;5000905;28;20215;-47
2022/12/28 02:26:53;;;;;;;2.60;1.40;;;5.90;99.90;;;;;;5021554;28;20282;-44
2022/12/28 02:30:02;;;;;;;3.27;1.20;;;5.90;99.90;;;;;;5029627;28;20873;-49
2022/12/28 02:32:55;;;;;;;5.20;1.23;;;5.90;99.90;;;;;;5026104;28;20235;-44
2022/12/28 02:35:31;;;;;;;2.70;1.20;;;5.80;99.90;;;;;;5022428;28;20212;-44
2022/12/28 02:38:02;;;;;;;2.87;1.37;;;5.70;99.90;;;;;;5030595;28;20202;-55
2022/12/28 02:40:34;;;;;;;2.80;1.10;;;5.60;99.90;;;;;;5028017;28;20191;-53
2022/12/28 02:43:02;;;;;;;2.43;1.33;;;5.60;99.90;;;;;;5017925;28;20207;-58
2022/12/28 02:51:27;;;;;;;4.57;1.03;;;5.50;99.90;;;;;;5034322;28;20207;-57
2022/12/28 02:57:10;;;;;;;2.03;1.10;;;5.50;99.90;;;;;;5011542;28;20203;-57
2022/12/28 02:59:53;;;;;;;1.70;1.20;;;5.40;99.90;;;;;;5031887;28;20686;-44
2022/12/28 03:02:34;;;;;;;1.80;1.50;;;5.40;99.90;;;;;;5019360;28;20875;-47
2022/12/28 03:05:10;;;;;;;5.53;1.70;;;5.40;99.90;;;;;;5021966;28;20748;-58
2022/12/28 03:10:47;;;;;;;5.47;1.30;;;5.30;99.90;;;;;;5024630;28;20721;-50
2022/12/28 03:16:09;;;;;;;3.87;1.47;;;5.30;99.90;;;;;;5031165;28;20219;-56
2022/12/28 03:32:48;;;;;;;3.50;1.90;;;5.20;99.90;;;;;;5041913;28;20204;-47
2022/12/28 03:35:19;;;;;;;6.17;1.63;;;5.20;99.90;;;;;;5035125;28;20962;-47
2022/12/28 03:37:52;;;;;;;4.40;1.80;;;5.10;99.90;;;;;;5038737;28;20262;-44
2022/12/28 03:40:27;;;;;;;3.47;1.90;;;5.20;99.90;;;;;;5018635;28;20258;-46
2022/12/28 03:45:51;;;;;;;4.17;1.70;;;5.10;99.90;;;;;;5044900;28;20705;-45
2022/12/28 03:48:21;;;;;;;4.33;1.70;;;5.10;99.90;;;;;;5047544;28;20195;-44
2022/12/28 03:50:52;;;;;;;1.50;1.40;;;5.10;99.90;;;;;;5022754;28;20199;-48
2022/12/28 03:53:25;;;;;;;7.83;1.67;;;5.10;99.90;;;;;;5018247;28;20835;-44
2022/12/28 03:56:06;;;;;;;5.40;1.60;;;5.10;99.90;;;;;;5022548;28;20227;-54
2022/12/28 03:58:35;;;;;;;4.03;1.67;;;5.10;99.90;;;;;;5022797;28;20348;-46
2022/12/28 04:01:03;;;;;;;5.83;2.07;;;5.10;99.90;;;;;;5016927;28;20295;-56
2022/12/28 04:03:32;;;;;;;4.90;2.03;;;5.20;99.90;;;;;;5023303;28;20216;-46
2022/12/28 04:06:00;;;;;;;2.00;1.80;;;5.10;99.90;;;;;;5021626;28;20234;-55
2022/12/28 04:08:27;;;;;;;3.47;1.60;;;5.20;99.90;;;;;;5020057;28;20196;-47
2022/12/28 04:10:55;;;;;;;4.97;1.50;;;5.10;99.90;;;;;;5022439;28;20626;-56
2022/12/28 04:13:22;;;;;;;7.33;2.20;;;5.20;99.90;;;;;;5019922;28;20279;-44
2022/12/28 04:16:02;;;;;;;3.97;1.83;;;5.10;99.90;;;;;;5009369;28;20239;-57
2022/12/28 04:18:31;;;;;;;4.80;1.73;;;5.10;99.90;;;;;;5033498;28;20291;-44
2022/12/28 04:20:59;;;;;;;3.77;2.10;;;5.10;99.90;;;;;;5021748;28;20204;-56
2022/12/28 04:23:28;;;;;;;5.23;2.27;;;5.10;99.90;;;;;;5021083;28;20192;-44
2022/12/28 04:26:13;;;;;;;1.60;1.40;;;5.10;99.90;;;;;;5033430;28;20281;-57
2022/12/28 04:28:42;;;;;;;6.23;2.30;;;5.10;99.90;;;;;;5041548;28;20208;-45
2022/12/28 04:31:29;;;;;;;4.70;1.67;;;5.10;99.90;;;;;;5014667;28;20211;-50
2022/12/28 04:34:05;;;;;;;3.37;1.70;;;5.10;99.90;;;;;;5024009;28;20251;-57
2022/12/28 04:36:38;;;;;;;6.77;1.77;;;5.10;99.90;;;;;;5040214;28;20203;-44
2022/12/28 04:39:09;;;;;;;3.77;1.90;;;5.10;99.90;;;;;;5035419;28;20686;-56
2022/12/28 04:41:36;;;;;;;2.23;1.43;;;5.10;99.90;;;;;;5020154;28;20270;-47
2022/12/28 04:44:02;;;;;;;4.87;2.17;;;5.10;99.90;;;;;;5021208;28;20216;-55
2022/12/28 04:46:30;;;;;;;3.97;1.57;;;5.10;99.90;;;;;;5012201;28;20223;-51
2022/12/28 04:48:57;;;;;;;6.47;2.13;;;5.10;99.90;;;;;;5032994;28;20203;-56
2022/12/28 04:51:25;;;;;;;7.50;2.10;;;5.10;99.90;;;;;;5028436;28;20820;-52
2022/12/28 04:53:55;;;;;;;5.23;1.57;;;5.10;99.90;;;;;;5026571;28;20223;-49
2022/12/28 04:56:23;;;;;;;3.20;1.60;;;5.10;99.90;;;;;;5023372;28;20221;-47
2022/12/28 04:58:54;;;;;;;5.20;1.80;;;5.10;99.90;;;;;;5027602;28;20560;-50
2022/12/28 05:01:21;;;;;;;5.27;2.00;;;5.10;99.90;;;;;;5030722;28;20196;-44
2022/12/28 05:03:49;;;;;;;5.53;1.60;;;5.10;99.90;;;;;;5024871;28;20226;-52
2022/12/28 05:06:18;;;;;;;3.87;2.00;;;5.10;99.90;;;;;;5031128;28;20279;-52
2022/12/28 05:08:46;;;;;;;4.50;1.50;;;5.10;99.90;;;;;;5035650;28;20204;-44
2022/12/28 05:11:16;;;;;;;5.03;1.97;;;5.10;99.90;;;;;;5022888;28;20337;-57
2022/12/28 05:13:43;;;;;;;5.60;1.70;;;5.10;99.90;;;;;;5025946;28;20282;-46
2022/12/28 05:16:12;;;;;;;6.30;1.80;;;5.10;99.90;;;;;;5029877;28;20601;-56
2022/12/28 05:18:39;;;;;;;6.63;1.57;;;5.10;99.90;;;;;;5017687;28;20199;-48
2022/12/28 05:21:08;;;;;;;4.53;1.97;;;5.10;99.90;;;;;;5035326;28;20203;-56
2022/12/28 05:23:37;;;;;;;2.40;1.70;;;5.10;99.90;;;;;;5025199;28;20283;-51
2022/12/28 05:26:05;;;;;;;7.07;2.10;;;5.10;99.90;;;;;;5024433;28;20200;-56
2022/12/28 05:28:33;;;;;;;2.87;1.70;;;5.10;99.90;;;;;;5024796;28;20207;-45
2022/12/28 05:31:02;;;;;;;5.60;1.83;;;5.10;99.90;;;;;;5025234;28;20206;-56
2022/12/28 05:33:30;;;;;;;4.30;1.90;;;5.10;99.90;;;;;;5012231;28;20211;-46
2022/12/28 05:35:57;;;;;;;4.07;2.23;;;5.00;99.90;;;;;;5035402;28;20820;-58
2022/12/28 05:38:24;;;;;;;6.60;2.53;;;5.10;99.90;;;;;;5023222;28;20204;-45
2022/12/28 05:40:51;;;;;;;6.03;2.00;;;5.10;99.90;;;;;;5025857;28;20199;-44
2022/12/28 05:43:18;;;;;;;4.33;2.27;;;5.10;99.90;;;;;;5028085;28;20188;-46
2022/12/28 05:45:46;;;;;;;2.33;1.93;;;5.10;99.90;;;;;;5033102;28;20223;-44
2022/12/28 05:48:13;;;;;;;8.40;2.60;;;5.10;99.90;;;;;;5008671;28;20208;-58
2022/12/28 05:50:40;;;;;;;6.70;2.50;;;5.10;99.90;;;;;;5027215;28;20207;-47
2022/12/28 05:53:07;;;;;;;4.00;2.17;;;5.10;99.90;;;;;;5028588;28;20204;-55
2022/12/28 05:55:34;;;;;;;6.27;3.30;;;5.10;99.90;;;;;;5024637;28;20231;-48
2022/12/28 05:58:00;;;;;;;12.97;3.73;;;5.10;99.90;;;;;;5023739;28;20200;-56
2022/12/28 06:00:28;;;;;;;5.37;2.03;;;5.10;99.90;;;;;;5023249;28;20192;-50
2022/12/28 06:02:56;;;;;;;4.70;2.03;;;5.20;99.90;;;;;;5033456;28;20658;-56
2022/12/28 06:05:27;;;;;;;5.57;2.60;;;5.20;99.90;;;;;;5033091;28;20231;-47
2022/12/28 06:07:54;;;;;;;3.87;1.87;;;5.20;99.90;;;;;;5036468;28;20196;-50
2022/12/28 06:10:21;;;;;;;4.67;1.80;;;5.20;99.90;;;;;;5018564;28;20204;-46
2022/12/28 06:12:48;;;;;;;5.17;1.80;;;5.20;99.90;;;;;;5032159;28;20263;-47
2022/12/28 06:15:14;;;;;;;2.93;1.77;;;5.30;99.90;;;;;;5029909;28;20250;-54
2022/12/28 06:17:41;;;;;;;4.10;2.67;;;5.20;99.90;;;;;;5036184;28;20210;-47
2022/12/28 06:20:10;;;;;;;3.23;1.90;;;5.30;99.90;;;;;;5023288;28;20681;-57
2022/12/28 06:22:37;;;;;;;5.97;2.10;;;5.30;99.90;;;;;;5036019;28;20211;-55
2022/12/28 06:25:04;;;;;;;1.67;1.57;;;5.30;99.90;;;;;;5038755;28;20579;-46
2022/12/28 06:27:30;;;;;;;2.63;2.00;;;5.30;99.90;;;;;;5035853;28;20852;-55
2022/12/28 06:29:58;;;;;;;2.37;1.47;;;5.30;99.90;;;;;;5038957;28;20290;-46
2022/12/28 06:32:25;;;;;;;3.97;2.17;;;5.30;99.90;;;;;;5033897;28;20207;-56
2022/12/28 06:34:52;;;;;;;2.67;2.30;;;5.40;99.90;;;;;;5022446;28;20957;-43
2022/12/28 06:37:20;;;;;;;5.53;2.80;;;5.40;99.90;;;;;;5039894;28;20736;-53
2022/12/28 06:39:47;;;;;;;5.90;2.83;;;5.40;99.90;;;;;;5033492;28;20274;-49
2022/12/28 06:42:14;;;;;;;8.87;3.57;;;5.50;99.90;;;;;;5035466;28;20211;-43
2022/12/28 06:44:40;;;;;;;3.93;2.00;;;5.50;99.90;;;;;;5036486;28;20220;-54
2022/12/28 06:47:07;;;;;;;3.53;2.07;;;5.50;99.90;;;;;;5026654;28;20204;-52
2022/12/28 06:49:33;;;;;;;5.20;2.83;;;5.50;99.90;;;;;;5037651;28;20224;-56
2022/12/28 06:52:00;;;;;;;4.87;2.40;;;5.50;99.90;;;;;;5015890;28;20234;-45
2022/12/28 06:54:28;;;;;;;5.47;3.63;;;5.60;99.90;;;;;;5039464;28;20222;-55
2022/12/28 06:56:55;;;;;;;8.23;2.33;;;5.60;99.90;;;;;;5026995;28;20208;-50
2022/12/28 06:59:22;;;;;;;3.20;1.97;;;5.60;99.90;;;;;;5039757;28;20199;-56
2022/12/28 07:01:48;;;;;;;9.07;3.07;;;5.60;99.90;;;;;;5030437;28;20206;-49
2022/12/28 07:04:16;;;;;;;12.90;4.30;;;5.60;99.90;;;;;;5040434;28;20223;-48
2022/12/28 07:06:43;;;;;;;4.20;2.20;;;5.60;99.90;;;;;;5009125;28;20215;-45
2022/12/28 07:09:13;;;;;;;9.53;4.23;;;5.60;99.90;;;;;;5030377;28;20230;-57
2022/12/28 07:11:42;;;;;;;8.73;2.70;;;5.60;99.90;;;;;;5032425;28;20565;-47
2022/12/28 07:14:09;;;;;;;5.93;3.50;;;5.70;99.90;;;;;;5032711;28;20879;-53
2022/12/28 07:16:35;;;;;;;3.07;2.10;;;5.70;99.90;;;;;;5039753;28;20226;-47
2022/12/28 07:19:03;;;;;;;7.27;3.53;;;5.70;99.90;;;;;;5035014;28;20211;-55
2022/12/28 07:21:32;;;;;;;6.03;2.90;;;5.80;99.90;;;;;;5035519;28;20201;-45
2022/12/28 07:23:59;;;;;;;7.93;2.73;;;5.80;99.90;;;;;;5018911;28;20808;-57
2022/12/28 07:26:28;;;;;;;5.90;3.03;;;5.80;99.90;;;;;;5034144;28;20195;-46
2022/12/28 07:28:57;;;;;;;8.67;4.30;;;5.80;99.90;;;;;;5033505;28;20208;-49
2022/12/28 07:31:27;;;;;;;4.07;2.57;;;5.80;99.90;;;;;;5020485;28;20293;-46
2022/12/28 07:33:56;;;;;;;6.47;3.00;;;5.80;99.90;;;;;;5028957;28;20196;-46
2022/12/28 07:36:23;;;;;;;7.23;2.93;;;5.90;99.90;;;;;;5020305;28;20223;-52
2022/12/28 07:38:51;;;;;;;14.13;3.90;;;5.90;99.90;;;;;;5017341;28;20215;-47
2022/12/28 07:41:20;;;;;;;23.93;6.07;;;5.90;99.90;;;;;;5029284;28;20238;-56
2022/12/28 07:43:47;;;;;;;21.30;4.47;;;5.90;99.90;;;;;;5021227;28;20208;-45
2022/12/28 07:46:18;;;;;;;13.60;4.47;;;5.90;99.90;;;;;;5030068;28;20215;-59
2022/12/28 07:48:46;;;;;;;16.10;4.87;;;6.00;99.90;;;;;;5031559;28;20209;-48
2022/12/28 07:51:15;;;;;;;19.63;5.10;;;6.00;99.90;;;;;;5035800;28;20298;-56
2022/12/28 07:53:43;;;;;;;13.77;3.87;;;6.00;99.90;;;;;;5021031;28;20203;-51
2022/12/28 07:56:11;;;;;;;13.83;4.80;;;6.10;99.90;;;;;;5033331;28;20220;-55
2022/12/28 07:58:38;;;;;;;11.57;3.83;;;6.10;99.90;;;;;;5025533;28;21032;-47
2022/12/28 08:01:06;;;;;;;12.37;5.47;;;6.10;99.90;;;;;;5025208;28;20203;-56
2022/12/28 08:03:35;;;;;;;22.83;5.57;;;6.10;99.90;;;;;;5027933;28;20896;-46
2022/12/28 08:06:04;;;;;;;6.83;3.20;;;6.20;99.90;;;;;;5023355;28;20266;-56
2022/12/28 08:08:31;;;;;;;16.17;4.43;;;6.20;99.90;;;;;;5009256;28;20203;-45
2022/12/28 08:11:02;;;;;;;7.80;3.20;;;6.20;99.90;;;;;;5030204;28;20199;-49
2022/12/28 08:13:31;;;;;;;19.47;6.27;;;6.30;99.90;;;;;;5029689;28;20203;-48
2022/12/28 08:15:57;;;;;;;9.90;3.77;;;6.30;99.90;;;;;;5033705;28;20713;-52
2022/12/28 08:18:24;;;;;;;13.57;5.60;;;6.30;99.90;;;;;;5025849;28;20332;-46
2022/12/28 08:20:54;;;;;;;9.00;4.27;;;6.40;99.90;;;;;;5032070;28;20602;-50
2022/12/28 08:23:21;;;;;;;13.17;4.60;;;6.40;99.90;;;;;;5027866;28;20293;-47
2022/12/28 08:25:48;;;;;;;4.07;3.00;;;6.50;99.90;;;;;;5024634;28;20223;-52
2022/12/28 08:28:15;;;;;;;7.53;3.13;;;6.50;99.90;;;;;;5032232;28;20200;-58
2022/12/28 08:30:42;;;;;;;20.93;6.23;;;6.50;99.90;;;;;;5033057;28;20301;-52
2022/12/28 08:33:09;;;;;;;10.63;4.83;;;6.50;99.90;;;;;;5026412;28;20223;-55
2022/12/28 08:35:36;;;;;;;16.07;5.00;;;6.60;99.90;;;;;;5030450;28;20979;-48
2022/12/28 08:38:04;;;;;;;4.77;3.10;;;6.60;99.90;;;;;;5023967;28;20216;-59
2022/12/28 08:40:30;;;;;;;7.10;3.90;;;6.60;99.90;;;;;;5014132;28;20219;-47
2022/12/28 08:42:58;;;;;;;7.87;3.90;;;6.60;99.90;;;;;;5034369;28;20236;-56
2022/12/28 08:45:25;;;;;;;5.53;3.67;;;6.60;99.90;;;;;;5028215;28;20207;-45
2022/12/28 08:47:52;;;;;;;5.43;3.50;;;6.70;99.90;;;;;;5032211;28;20203;-49
2022/12/28 08:50:20;;;;;;;12.47;4.13;;;6.70;99.90;;;;;;5024906;28;20203;-49
2022/12/28 08:52:46;;;;;;;15.67;6.33;;;6.80;99.90;;;;;;5026718;28;20281;-58
2022/12/28 08:55:14;;;;;;;12.97;5.67;;;6.80;99.90;;;;;;5015926;28;20293;-59
2022/12/28 08:57:41;;;;;;;20.13;6.97;;;6.80;99.90;;;;;;5033793;28;20214;-48
2022/12/28 09:00:09;;;;;;;6.10;4.10;;;6.90;99.90;;;;;;5033094;28;20223;-59
2022/12/28 09:02:36;;;;;;;6.40;3.97;;;6.90;99.90;;;;;;5034248;28;20195;-51
2022/12/28 09:05:03;;;;;;;4.10;3.70;;;6.90;99.90;;;;;;5032915;28;20223;-58
2022/12/28 09:07:30;;;;;;;8.63;5.83;;;7.00;99.90;;;;;;5027546;28;20214;-50
2022/12/28 09:09:56;;;;;;;14.33;8.07;;;7.00;99.90;;;;;;5022902;28;20672;-46
2022/12/28 09:12:25;;;;;;;4.63;4.23;;;7.00;99.90;;;;;;5026924;28;20275;-51
2022/12/28 09:14:52;;;;;;;6.93;5.27;;;7.10;99.90;;;;;;5038550;28;20215;-49
2022/12/28 09:17:19;;;;;;;10.93;5.73;;;7.10;99.90;;;;;;5020485;28;20223;-57
2022/12/28 09:19:46;;;;;;;10.27;6.87;;;7.10;99.90;;;;;;5031829;28;20222;-50
2022/12/28 09:22:13;;;;;;;8.80;5.47;;;7.10;99.90;;;;;;5022817;28;20202;-58
2022/12/28 09:24:40;;;;;;;12.13;6.77;;;7.20;99.90;;;;;;5047972;28;20231;-49
2022/12/28 09:27:07;;;;;;;9.33;6.07;;;7.20;99.90;;;;;;5018295;28;20211;-55
2022/12/28 09:29:37;;;;;;;16.87;8.63;;;7.30;99.90;;;;;;5038429;28;20187;-56
2022/12/28 09:32:04;;;;;;;19.00;7.90;;;7.30;99.90;;;;;;5034162;28;20543;-55
2022/12/28 09:34:31;;;;;;;8.17;5.77;;;7.30;99.90;;;;;;5034294;28;20228;-49
2022/12/28 09:36:58;;;;;;;19.07;8.10;;;7.40;99.90;;;;;;5026936;28;20227;-51
2022/12/28 09:39:25;;;;;;;7.10;6.03;;;7.40;99.90;;;;;;5025943;28;20278;-48
2022/12/28 09:41:55;;;;;;;8.43;6.40;;;7.40;99.90;;;;;;5019613;28;20249;-48
2022/12/28 09:44:45;;;;;;;7.37;6.43;;;7.50;99.90;;;;;;5029787;28;20211;-52
2022/12/28 09:47:22;;;;;;;5.93;5.27;;;7.50;99.90;;;;;;5027867;28;20196;-53
2022/12/28 09:50:06;;;;;;;15.43;8.90;;;7.50;99.90;;;;;;5031819;28;20210;-52
2022/12/28 09:52:38;;;;;;;6.97;5.90;;;7.60;99.90;;;;;;5022773;28;20203;-48
2022/12/28 09:55:11;;;;;;;28.33;10.63;;;7.60;99.90;;;;;;5026779;28;20227;-58
2022/12/28 09:57:42;;;;;;;15.33;7.93;;;7.70;99.90;;;;;;5016441;28;20235;-47
2022/12/28 10:00:16;;;;;;;8.83;6.17;;;7.70;99.90;;;;;;5037491;28;20198;-48
2022/12/28 10:02:47;;;;;;;10.60;7.27;;;7.70;99.90;;;;;;5022263;28;20211;-53
2022/12/28 10:05:14;;;;;;;12.77;6.63;;;7.70;99.90;;;;;;5037425;28;20215;-45
2022/12/28 10:07:41;;;;;;;14.93;8.80;;;7.70;99.90;;;;;;5038331;28;20262;-48
2022/12/28 10:10:13;;;;;;;8.37;6.53;;;7.70;99.90;;;;;;5025818;28;20274;-45
2022/12/28 10:12:42;;;;;;;28.30;8.63;;;7.80;99.90;;;;;;5026764;28;20265;-44
2022/12/28 10:15:13;;;;;;;7.03;5.60;;;7.80;99.90;;;;;;5020475;28;20229;-48
2022/12/28 10:17:40;;;;;;;16.57;8.10;;;7.80;99.90;;;;;;5042610;28;20205;-46
2022/12/28 10:20:15;;;;;;;17.20;7.63;;;7.90;99.90;;;;;;5029722;28;20253;-55
2022/12/28 10:22:43;;;;;;;23.27;8.80;;;7.90;99.90;;;;;;5035446;28;20206;-53
2022/12/28 10:25:15;;;;;;;6.50;5.40;;;7.90;99.90;;;;;;5024744;28;20227;-44
2022/12/28 10:27:43;;;;;;;14.60;6.60;;;8.00;99.90;;;;;;5034153;28;20239;-45
2022/12/28 10:30:18;;;;;;;5.70;5.20;;;8.00;99.90;;;;;;5021975;28;20214;-44
2022/12/28 10:32:51;;;;;;;7.80;5.50;;;8.00;99.90;;;;;;5041254;28;20202;-52
2022/12/28 10:35:23;;;;;;;5.20;4.70;;;8.00;99.90;;;;;;5022269;28;20981;-49
2022/12/28 10:37:50;;;;;;;7.87;5.13;;;8.00;99.90;;;;;;5035740;28;20208;-56
2022/12/28 10:40:23;;;;;;;5.83;4.83;;;8.00;99.90;;;;;;5031014;28;20192;-47
2022/12/28 10:42:54;;;;;;;11.67;6.13;;;8.00;99.90;;;;;;5024167;28;20206;-58
2022/12/28 10:45:29;;;;;;;6.77;5.80;;;8.00;99.90;;;;;;5019802;28;20219;-44
2022/12/28 10:47:57;;;;;;;10.00;5.90;;;8.10;99.90;;;;;;5036829;28;20207;-57
2022/12/28 10:50:51;;;;;;;13.50;7.37;;;8.10;99.90;;;;;;5031095;28;20215;-44
2022/12/28 10:53:25;;;;;;;6.10;5.17;;;8.10;99.90;;;;;;5035024;28;20191;-46
2022/12/28 10:56:02;;;;;;;5.83;5.30;;;8.10;99.90;;;;;;5032179;28;20254;-56
2022/12/28 10:58:29;;;;;;;9.77;6.40;;;8.20;99.90;;;;;;5033929;28;20686;-45
2022/12/28 11:00:59;;;;;;;7.57;6.10;;;8.20;99.90;;;;;;5022666;28;20204;-56
2022/12/28 11:03:28;;;;;;;12.23;7.53;;;8.20;99.90;;;;;;5035695;28;20199;-48
2022/12/28 11:06:13;;;;;;;18.30;8.83;;;8.30;99.90;;;;;;5029529;28;20219;-60
2022/12/28 11:08:42;;;;;;;11.00;6.70;;;8.30;99.90;;;;;;5038854;28;20674;-50
2022/12/28 11:11:18;;;;;;;7.57;6.37;;;8.30;99.90;;;;;;5034256;28;20207;-48
2022/12/28 11:13:50;;;;;;;9.57;7.47;;;8.30;99.90;;;;;;5027095;28;20210;-47
2022/12/28 11:16:18;;;;;;;9.63;7.53;;;8.40;99.90;;;;;;5012259;28;20947;-50
2022/12/28 11:18:45;;;;;;;7.63;5.87;;;8.40;99.90;;;;;;5026840;28;20207;-50
2022/12/28 11:21:18;;;;;;;7.43;6.60;;;8.50;99.90;;;;;;5028363;28;20207;-55
2022/12/28 11:23:46;;;;;;;6.83;6.13;;;8.40;99.90;;;;;;5029025;28;20683;-50
2022/12/28 11:26:13;;;;;;;6.80;6.10;;;8.40;99.90;;;;;;5026346;28;20207;-51
2022/12/28 11:28:41;;;;;;;5.07;4.63;;;8.40;99.90;;;;;;5028732;28;20326;-47
2022/12/28 11:31:16;;;;;;;10.57;7.07;;;8.50;99.90;;;;;;5012724;28;20212;-58
2022/12/28 11:33:46;;;;;;;11.63;6.00;;;8.50;99.90;;;;;;5038065;28;20207;-54
2022/12/28 11:36:15;;;;;;;8.73;5.87;;;8.50;99.90;;;;;;5020423;28;20705;-56
2022/12/28 11:38:44;;;;;;;6.13;5.50;;;8.50;99.90;;;;;;5032753;28;20536;-50
2022/12/28 11:41:12;;;;;;;9.50;5.13;;;8.50;99.90;;;;;;5038511;28;20214;-51
2022/12/28 11:43:48;;;;;;;13.03;7.17;;;8.50;99.90;;;;;;5025736;28;20196;-46
2022/12/28 11:46:38;;;;;;;9.80;6.17;;;8.50;99.90;;;;;;5030643;28;20274;-53
2022/12/28 11:49:25;;;;;;;7.70;5.40;;;8.50;99.90;;;;;;5032095;28;20203;-45
2022/12/28 11:52:33;;;;;;;6.60;4.67;;;8.50;99.90;;;;;;5030362;28;20206;-50
2022/12/28 11:55:04;;;;;;;5.70;4.37;;;8.50;99.90;;;;;;5039525;28;20219;-46
2022/12/28 11:57:36;;;;;;;5.13;4.63;;;8.50;99.90;;;;;;5027315;28;20211;-58
2022/12/28 12:00:46;;;;;;;9.03;4.43;;;8.50;99.90;;;;;;5029394;28;20196;-53
2022/12/28 12:03:13;;;;;;;13.13;5.13;;;8.40;99.90;;;;;;4997473;28;20212;-48
2022/12/28 12:05:53;;;;;;;23.80;11.07;;;8.50;99.90;;;;;;5034223;28;20222;-51
2022/12/28 12:08:41;;;;;;;4.60;3.80;;;8.50;99.90;;;;;;5030832;28;20203;-57
2022/12/28 12:11:30;;;;;;;5.80;4.17;;;8.50;99.90;;;;;;5024434;28;20200;-52
2022/12/28 12:14:00;;;;;;;7.03;4.27;;;8.50;99.90;;;;;;5029203;28;20223;-48
2022/12/28 12:16:38;;;;;;;4.30;3.90;;;8.50;99.90;;;;;;5023859;28;20219;-58
2022/12/28 12:19:07;;;;;;;10.83;5.10;;;8.50;99.90;;;;;;5018277;28;20215;-52
2022/12/28 12:21:41;;;;;;;5.23;3.80;;;8.40;99.90;;;;;;5027547;28;20190;-52
2022/12/28 12:24:18;;;;;;;8.13;5.50;;;8.50;99.90;;;;;;5023037;28;20232;-45
2022/12/28 12:26:49;;;;;;;5.47;4.60;;;8.40;99.90;;;;;;5032184;28;20244;-46
2022/12/28 12:29:20;;;;;;;10.27;5.53;;;8.50;99.90;;;;;;5022460;28;20210;-57
2022/12/28 12:31:59;;;;;;;5.40;4.20;;;8.40;99.90;;;;;;5029767;28;20207;-48
2022/12/28 12:34:34;;;;;;;6.20;4.13;;;8.40;99.90;;;;;;5013409;28;20223;-58
2022/12/28 12:37:37;;;;;;;8.37;4.80;;;8.50;99.90;;;;;;5039741;28;20222;-45
2022/12/28 12:40:34;;;;;;;8.67;5.13;;;8.50;99.90;;;;;;5029894;28;20210;-44
2022/12/28 12:43:25;;;;;;;8.93;4.33;;;8.50;99.90;;;;;;5026219;28;20635;-50
2022/12/28 12:46:03;;;;;;;3.40;3.10;;;8.50;99.90;;;;;;5030451;28;20228;-48
2022/12/28 12:48:47;;;;;;;18.70;7.77;;;8.50;99.90;;;;;;5003900;28;20204;-57
2022/12/28 12:51:24;;;;;;;12.07;5.10;;;8.60;99.90;;;;;;5029669;28;20198;-55
2022/12/28 12:54:04;;;;;;;3.97;3.47;;;8.60;99.90;;;;;;5037653;28;20198;-49
2022/12/28 12:56:43;;;;;;;9.87;6.07;;;8.60;99.90;;;;;;5020803;28;20579;-45
2022/12/28 12:59:27;;;;;;;10.67;5.37;;;8.60;99.90;;;;;;5028553;28;20337;-46
2022/12/28 13:02:03;;;;;;;7.50;4.67;;;8.60;99.90;;;;;;5020184;28;20810;-51
2022/12/28 13:04:33;;;;;;;9.23;5.47;;;8.60;99.90;;;;;;5017178;28;20224;-50
2022/12/28 13:07:03;;;;;;;19.47;6.70;;;8.60;99.90;;;;;;5035362;28;20196;-51
2022/12/28 13:09:34;;;;;;;13.20;5.70;;;8.60;99.90;;;;;;5034746;28;20211;-44
2022/12/28 13:12:02;;;;;;;8.20;4.40;;;8.60;99.90;;;;;;5037020;28;20341;-50
2022/12/28 13:14:29;;;;;;;5.37;4.27;;;8.60;99.90;;;;;;5032489;28;20223;-45
2022/12/28 13:16:58;;;;;;;7.83;4.97;;;8.60;99.90;;;;;;5028894;28;20216;-46
2022/12/28 13:19:26;;;;;;;13.47;6.50;;;8.60;99.90;;;;;;5020503;28;20700;-47
2022/12/28 13:21:54;;;;;;;4.80;3.90;;;8.60;99.90;;;;;;5032630;28;20204;-56
2022/12/28 13:24:22;;;;;;;6.83;4.93;;;8.70;99.90;;;;;;5033956;28;20226;-47
2022/12/28 13:26:51;;;;;;;5.70;4.73;;;8.70;99.90;;;;;;5038265;28;20199;-57
2022/12/28 13:29:21;;;;;;;7.43;4.53;;;8.70;99.90;;;;;;5034371;28;20211;-53
2022/12/28 13:31:50;;;;;;;3.33;3.10;;;8.60;99.90;;;;;;5017875;28;20204;-55
2022/12/28 13:34:19;;;;;;;7.43;4.73;;;8.70;99.90;;;;;;5013839;28;20216;-50
2022/12/28 13:36:52;;;;;;;8.57;4.60;;;8.60;99.90;;;;;;5039675;28;20227;-57
2022/12/28 13:39:20;;;;;;;4.37;3.90;;;8.70;99.90;;;;;;5036928;28;20215;-47
2022/12/28 13:41:53;;;;;;;4.30;3.40;;;8.70;99.90;;;;;;5035056;28;20199;-58
2022/12/28 13:44:39;;;;;;;11.20;5.67;;;8.70;99.90;;;;;;5034908;28;20219;-51
2022/12/28 13:47:12;;;;;;;10.63;5.93;;;8.70;99.90;;;;;;5025736;28;20203;-55